Time;durP1;ratioP1;P1;durP2;ratioP2;P2;SDS_P1;SDS_P2;PMS_P1;PMS_P2;Temp;Humidity;BMP_temperature;BMP_pressure;BME280_temperature;BME280_humidity;BME280_pressure;Samples;Min_cycle;Max_cycle;Signal;HPM_P1;HPM_P2
2022/09/22 00:01:01;;;;;;;4.43;2.00;;;18.10;1.00;;;;;;5090234;28;20123;-63
2022/09/22 00:03:35;;;;;;;5.45;2.13;;;18.10;1.00;;;;;;5092166;28;20043;-63
2022/09/22 00:06:05;;;;;;;3.67;1.83;;;18.10;1.00;;;;;;5091305;28;20040;-63
2022/09/22 00:08:33;;;;;;;3.95;1.90;;;18.20;1.00;;;;;;5092453;28;20482;-63
2022/09/22 00:11:02;;;;;;;6.30;2.05;;;18.10;1.00;;;;;;5087864;28;20050;-64
2022/09/22 00:13:28;;;;;;;3.00;1.70;;;18.10;1.00;;;;;;5091018;28;20024;-63
2022/09/22 00:15:54;;;;;;;4.20;1.52;;;18.10;1.00;;;;;;5086622;28;20032;-63
2022/09/22 00:18:19;;;;;;;4.47;1.80;;;18.20;1.00;;;;;;5091941;28;20385;-64
2022/09/22 00:20:45;;;;;;;1.88;1.42;;;18.00;1.00;;;;;;5081347;28;20040;-63
2022/09/22 00:23:11;;;;;;;2.78;1.52;;;17.90;1.00;;;;;;5092256;28;20039;-63
2022/09/22 00:25:39;;;;;;;4.28;1.90;;;18.00;1.00;;;;;;5085171;28;20016;-63
2022/09/22 00:28:05;;;;;;;2.60;1.38;;;18.10;1.00;;;;;;5078271;28;20016;-63
2022/09/22 00:30:31;;;;;;;3.72;1.48;;;18.00;1.00;;;;;;5091280;28;20125;-63
2022/09/22 00:32:56;;;;;;;1.77;1.40;;;18.00;1.00;;;;;;5091724;28;20466;-63
2022/09/22 00:35:22;;;;;;;4.55;1.98;;;18.00;1.00;;;;;;5091174;28;20035;-63
2022/09/22 00:37:48;;;;;;;2.58;1.50;;;18.00;1.00;;;;;;5092078;28;20035;-63
2022/09/22 00:40:13;;;;;;;1.77;1.10;;;18.10;1.00;;;;;;5091113;28;20382;-63
2022/09/22 00:42:39;;;;;;;2.75;1.58;;;18.10;1.00;;;;;;5107535;28;20225;-63
2022/09/22 00:45:05;;;;;;;2.20;1.20;;;18.10;1.00;;;;;;5091267;28;20366;-63
2022/09/22 00:47:39;;;;;;;1.92;1.38;;;18.00;1.00;;;;;;5087851;28;20024;-63
2022/09/22 00:50:07;;;;;;;3.10;1.35;;;18.00;1.00;;;;;;5082515;28;20027;-63
2022/09/22 00:52:39;;;;;;;1.52;1.25;;;18.00;1.00;;;;;;5084991;28;20497;-63
2022/09/22 00:55:11;;;;;;;2.72;1.70;;;18.00;1.00;;;;;;5090781;28;20388;-63
2022/09/22 00:57:39;;;;;;;1.67;1.30;;;18.00;1.00;;;;;;5078164;28;20544;-63
2022/09/22 01:00:07;;;;;;;1.20;0.90;;;18.00;1.00;;;;;;5091692;28;20024;-63
2022/09/22 01:02:33;;;;;;;2.80;1.00;;;18.00;1.00;;;;;;5084656;28;20021;-63
2022/09/22 01:04:58;;;;;;;3.08;1.23;;;18.00;1.00;;;;;;5076110;28;20082;-63
2022/09/22 01:07:28;;;;;;;2.78;1.33;;;18.00;1.00;;;;;;5089163;28;20097;-63
2022/09/22 01:09:54;;;;;;;3.63;1.52;;;17.80;1.00;;;;;;5090304;28;20537;-63
2022/09/22 01:12:22;;;;;;;2.22;1.50;;;17.90;1.00;;;;;;5081005;28;20108;-63
2022/09/22 01:15:26;;;;;;;1.98;1.20;;;17.90;1.00;;;;;;5106490;28;20052;-63
2022/09/22 01:18:12;;;;;;;1.25;1.13;;;17.80;1.00;;;;;;5085787;28;20126;-63
2022/09/22 01:20:51;;;;;;;1.73;1.05;;;17.90;1.00;;;;;;5104408;28;20131;-63
2022/09/22 01:23:33;;;;;;;1.40;1.17;;;17.90;1.00;;;;;;5079517;28;20380;-63
2022/09/22 01:25:58;;;;;;;2.78;1.33;;;17.80;1.00;;;;;;5078950;28;20342;-63
2022/09/22 01:28:24;;;;;;;2.83;1.10;;;17.80;1.00;;;;;;5092224;28;20020;-64
2022/09/22 01:31:03;;;;;;;4.07;1.00;;;17.80;1.00;;;;;;5089193;28;20170;-64
2022/09/22 01:33:45;;;;;;;2.50;1.23;;;17.90;1.00;;;;;;5085814;28;20331;-63
2022/09/22 01:36:23;;;;;;;2.75;1.10;;;17.90;1.00;;;;;;5087767;28;20051;-63
2022/09/22 01:38:54;;;;;;;3.17;1.20;;;17.90;1.00;;;;;;5110091;28;20036;-63
2022/09/22 01:41:45;;;;;;;3.33;1.20;;;17.90;1.00;;;;;;5092416;28;20021;-63
2022/09/22 01:44:26;;;;;;;2.95;1.20;;;17.90;1.00;;;;;;5083516;28;20036;-63
2022/09/22 01:46:59;;;;;;;2.67;1.40;;;17.80;1.00;;;;;;5091587;28;20020;-63
2022/09/22 01:49:28;;;;;;;1.40;0.90;;;17.80;1.00;;;;;;5092313;28;20090;-63
2022/09/22 01:51:59;;;;;;;1.05;0.82;;;17.80;1.00;;;;;;5092026;28;20039;-63
2022/09/22 01:54:49;;;;;;;1.58;1.00;;;17.70;1.00;;;;;;5093557;28;20039;-63
2022/09/22 01:57:37;;;;;;;2.63;1.30;;;17.70;1.00;;;;;;5099197;28;20035;-63
2022/09/22 02:00:06;;;;;;;1.92;1.60;;;17.70;1.00;;;;;;5093331;28;20081;-63
2022/09/22 02:02:43;;;;;;;4.10;1.10;;;17.70;1.00;;;;;;5092998;28;20016;-63
2022/09/22 02:05:16;;;;;;;2.10;0.85;;;17.70;1.00;;;;;;5093587;28;20036;-63
2022/09/22 02:07:48;;;;;;;2.22;0.88;;;17.60;1.00;;;;;;5092897;28;20415;-63
2022/09/22 02:10:19;;;;;;;1.67;0.80;;;17.60;1.00;;;;;;5100885;28;20028;-63
2022/09/22 02:12:48;;;;;;;1.73;0.75;;;17.50;1.00;;;;;;5081167;28;20032;-63
2022/09/22 02:18:01;;;;;;;;;;;17.60;1.00;;;;;;5082661;28;20039;-63
2022/09/22 02:20:27;;;;;;;1.63;0.70;;;17.50;1.00;;;;;;5094198;28;19969;-63
2022/09/22 02:22:53;;;;;;;2.75;1.05;;;17.60;1.00;;;;;;5093567;28;20115;-63
2022/09/22 02:25:22;;;;;;;1.00;0.95;;;17.60;1.00;;;;;;5110183;28;20024;-63
2022/09/22 02:27:49;;;;;;;2.13;1.02;;;17.60;1.00;;;;;;5093403;28;20084;-63
2022/09/22 02:30:15;;;;;;;2.45;0.70;;;17.60;1.00;;;;;;5093974;28;20024;-63
2022/09/22 02:32:47;;;;;;;5.13;0.90;;;17.60;1.00;;;;;;5093403;28;20024;-63
2022/09/22 02:35:13;;;;;;;2.47;0.80;;;17.60;1.00;;;;;;5084880;28;20059;-63
2022/09/22 02:37:43;;;;;;;1.90;0.85;;;17.60;1.00;;;;;;5087310;28;20028;-63
2022/09/22 02:40:47;;;;;;;2.08;0.70;;;17.60;1.00;;;;;;5093011;28;20032;-63
2022/09/22 02:43:44;;;;;;;3.90;0.90;;;17.60;1.00;;;;;;5085084;28;20080;-63
2022/09/22 02:46:18;;;;;;;2.60;0.93;;;17.60;1.00;;;;;;5093844;28;20071;-63
2022/09/22 02:48:55;;;;;;;1.67;0.63;;;17.50;1.00;;;;;;5085717;28;20035;-64
2022/09/22 02:51:21;;;;;;;2.05;0.80;;;17.50;1.00;;;;;;5092144;28;20450;-63
2022/09/22 02:53:47;;;;;;;1.67;0.95;;;17.50;1.00;;;;;;5081005;28;20031;-63
2022/09/22 02:56:12;;;;;;;2.47;1.00;;;17.60;1.00;;;;;;5093803;28;20020;-63
2022/09/22 02:58:38;;;;;;;4.97;1.00;;;17.50;1.00;;;;;;5091816;28;20028;-63
2022/09/22 03:01:04;;;;;;;2.65;0.70;;;17.60;1.00;;;;;;5083910;28;20024;-63
2022/09/22 03:03:29;;;;;;;2.05;0.80;;;17.50;1.00;;;;;;5090134;28;20089;-63
2022/09/22 03:05:55;;;;;;;2.17;0.82;;;17.60;1.00;;;;;;5093666;28;20030;-63
2022/09/22 03:08:21;;;;;;;2.17;0.68;;;17.60;1.00;;;;;;5092436;28;20035;-63
2022/09/22 03:10:46;;;;;;;2.03;0.70;;;17.60;1.00;;;;;;5093457;28;20436;-63
2022/09/22 03:13:12;;;;;;;4.55;0.80;;;17.60;1.00;;;;;;5082067;28;20057;-63
2022/09/22 03:15:37;;;;;;;2.47;0.95;;;17.60;1.00;;;;;;5092939;28;20032;-63
2022/09/22 03:18:03;;;;;;;1.65;0.95;;;17.50;1.00;;;;;;5092468;28;20482;-63
2022/09/22 03:20:29;;;;;;;2.10;0.80;;;17.50;1.00;;;;;;5090327;28;20085;-63
2022/09/22 03:22:54;;;;;;;4.13;0.70;;;17.50;1.00;;;;;;5089010;28;20085;-63
2022/09/22 03:25:20;;;;;;;1.95;0.95;;;17.40;1.00;;;;;;5092389;28;20031;-63
2022/09/22 03:27:46;;;;;;;1.38;0.98;;;17.40;1.00;;;;;;5092393;28;20032;-64
2022/09/22 03:30:12;;;;;;;1.33;0.80;;;17.40;1.00;;;;;;5093194;28;20020;-64
2022/09/22 03:32:38;;;;;;;3.80;0.68;;;17.40;1.00;;;;;;5083144;28;20046;-63
2022/09/22 03:35:05;;;;;;;2.45;0.88;;;17.40;1.00;;;;;;5085384;28;20389;-63
2022/09/22 03:37:32;;;;;;;1.90;0.82;;;17.30;1.00;;;;;;5092851;28;20039;-63
2022/09/22 03:39:57;;;;;;;0.88;0.70;;;17.20;1.00;;;;;;5076498;28;20032;-63
2022/09/22 03:42:23;;;;;;;2.22;0.82;;;17.20;1.00;;;;;;5083581;28;20024;-63
2022/09/22 03:44:48;;;;;;;1.45;1.23;;;17.30;1.00;;;;;;5079700;28;20055;-63
2022/09/22 03:47:14;;;;;;;2.83;0.90;;;17.40;1.00;;;;;;5086433;28;20103;-63
2022/09/22 03:49:40;;;;;;;3.95;1.05;;;17.30;1.00;;;;;;5088983;28;20887;-63
2022/09/22 03:52:05;;;;;;;2.30;0.80;;;17.30;1.00;;;;;;5085700;28;20020;-63
2022/09/22 03:54:31;;;;;;;3.47;1.38;;;17.30;1.00;;;;;;5092538;28;20032;-63
2022/09/22 03:56:57;;;;;;;2.40;1.20;;;17.30;1.00;;;;;;5085034;28;20024;-63
2022/09/22 03:59:23;;;;;;;4.50;1.30;;;17.20;1.00;;;;;;5092717;28;20373;-63
2022/09/22 04:01:49;;;;;;;2.97;0.90;;;17.20;1.00;;;;;;5084608;28;20086;-63
2022/09/22 04:04:14;;;;;;;1.98;0.80;;;17.20;1.00;;;;;;5092816;28;20032;-63
2022/09/22 04:06:40;;;;;;;3.65;0.90;;;17.20;1.00;;;;;;5081362;28;20040;-63
2022/09/22 04:09:07;;;;;;;0.90;0.80;;;17.20;1.00;;;;;;5072267;28;20074;-63
2022/09/22 04:11:32;;;;;;;5.50;1.15;;;17.20;1.00;;;;;;5078695;28;20021;-63
2022/09/22 04:14:00;;;;;;;3.22;0.98;;;17.20;1.00;;;;;;5074689;28;20535;-63
2022/09/22 04:16:28;;;;;;;2.63;1.10;;;17.20;1.00;;;;;;5080447;28;20232;-63
2022/09/22 04:18:54;;;;;;;2.45;1.15;;;17.20;1.00;;;;;;5092248;28;20016;-63
2022/09/22 04:21:20;;;;;;;2.50;1.10;;;17.20;1.00;;;;;;5086882;28;20105;-63
2022/09/22 04:23:46;;;;;;;3.03;1.00;;;17.20;1.00;;;;;;5084489;28;20119;-63
2022/09/22 04:26:12;;;;;;;2.20;0.88;;;17.10;1.00;;;;;;5090832;28;20055;-63
2022/09/22 04:28:38;;;;;;;5.40;1.10;;;17.10;1.00;;;;;;5089532;28;20039;-63
2022/09/22 04:31:04;;;;;;;3.28;1.20;;;17.10;1.00;;;;;;5090488;28;20020;-63
2022/09/22 04:33:30;;;;;;;3.15;1.30;;;17.00;1.00;;;;;;5090555;28;20028;-63
2022/09/22 04:35:56;;;;;;;2.22;1.10;;;17.00;1.00;;;;;;5089201;28;20084;-63
2022/09/22 04:38:21;;;;;;;2.38;1.20;;;17.00;1.00;;;;;;5073550;28;20420;-63
2022/09/22 04:40:48;;;;;;;2.88;1.55;;;17.00;1.00;;;;;;5091628;28;20054;-63
2022/09/22 04:43:14;;;;;;;2.63;1.45;;;17.00;1.00;;;;;;5076811;28;20036;-63
2022/09/22 04:45:47;;;;;;;3.13;1.17;;;17.10;1.00;;;;;;5091727;28;20028;-63
2022/09/22 04:48:13;;;;;;;2.13;1.15;;;17.10;1.00;;;;;;5089988;28;20078;-63
2022/09/22 04:50:39;;;;;;;4.45;1.20;;;17.10;1.00;;;;;;5107249;28;20303;-64
2022/09/22 04:53:05;;;;;;;3.15;1.23;;;17.00;1.00;;;;;;5089840;28;20045;-65
2022/09/22 04:55:31;;;;;;;2.40;1.30;;;17.10;1.00;;;;;;5091845;28;20019;-63
2022/09/22 04:57:57;;;;;;;4.15;1.30;;;17.00;1.00;;;;;;5090945;28;20153;-63
2022/09/22 05:00:27;;;;;;;3.30;1.08;;;16.90;1.00;;;;;;5091371;28;20389;-63
2022/09/22 05:02:53;;;;;;;2.92;1.85;;;16.90;1.00;;;;;;5092043;28;20552;-63
2022/09/22 05:05:19;;;;;;;4.45;1.52;;;16.90;1.00;;;;;;5095801;28;20099;-63
2022/09/22 05:07:47;;;;;;;3.83;1.42;;;16.90;1.00;;;;;;5094648;28;20036;-63
2022/09/22 05:10:16;;;;;;;3.47;1.45;;;17.00;1.00;;;;;;5095761;28;20112;-63
2022/09/22 05:12:43;;;;;;;3.70;1.15;;;17.00;1.00;;;;;;5094087;28;20024;-63
2022/09/22 05:15:11;;;;;;;2.72;1.42;;;17.00;1.00;;;;;;5095118;28;20481;-63
2022/09/22 05:17:36;;;;;;;6.50;1.40;;;17.00;1.00;;;;;;5091233;28;20025;-64
2022/09/22 05:20:06;;;;;;;2.65;1.45;;;17.00;1.00;;;;;;5094041;28;20052;-64
2022/09/22 05:22:32;;;;;;;4.63;1.45;;;17.00;1.00;;;;;;5083592;28;20029;-64
2022/09/22 05:24:57;;;;;;;6.90;1.38;;;17.00;1.00;;;;;;5081013;28;20058;-63
2022/09/22 05:27:24;;;;;;;3.92;1.40;;;16.90;1.00;;;;;;5091892;28;20054;-63
2022/09/22 05:29:49;;;;;;;5.82;1.90;;;17.00;1.00;;;;;;5084009;28;20028;-63
2022/09/22 05:32:15;;;;;;;3.65;1.50;;;17.00;1.00;;;;;;5094441;28;20028;-63
2022/09/22 05:34:41;;;;;;;4.70;2.25;;;17.00;1.00;;;;;;5094395;28;20044;-64
2022/09/22 05:37:07;;;;;;;6.10;1.75;;;17.00;1.00;;;;;;5082444;28;20024;-64
2022/09/22 05:39:32;;;;;;;3.10;1.30;;;16.90;1.00;;;;;;5090767;28;20020;-63
2022/09/22 05:41:58;;;;;;;6.72;1.35;;;17.00;1.00;;;;;;5092662;28;20048;-63
2022/09/22 05:44:24;;;;;;;8.57;1.90;;;16.90;1.00;;;;;;5094037;28;20777;-63
2022/09/22 05:46:50;;;;;;;8.80;1.88;;;16.80;1.00;;;;;;5092731;28;20028;-64
2022/09/22 05:49:16;;;;;;;3.35;1.58;;;16.90;1.00;;;;;;5094345;28;20066;-63
2022/09/22 05:51:42;;;;;;;7.28;1.70;;;16.90;1.00;;;;;;5091527;28;20052;-63
2022/09/22 05:54:08;;;;;;;2.38;1.30;;;17.00;1.00;;;;;;5107789;28;20055;-64
2022/09/22 05:56:34;;;;;;;4.90;1.70;;;16.90;1.00;;;;;;5091704;28;20020;-63
2022/09/22 05:59:00;;;;;;;5.18;1.77;;;17.00;1.00;;;;;;5082413;28;20107;-64
2022/09/22 06:01:26;;;;;;;2.90;1.40;;;16.90;1.00;;;;;;5092648;28;20481;-63
2022/09/22 06:03:52;;;;;;;5.47;1.80;;;17.00;1.00;;;;;;5090416;28;20439;-64
2022/09/22 06:06:18;;;;;;;6.75;2.25;;;17.00;1.00;;;;;;5084800;28;20020;-64
2022/09/22 06:08:43;;;;;;;3.38;1.80;;;17.00;1.00;;;;;;5103606;28;20030;-64
2022/09/22 06:11:09;;;;;;;5.93;1.77;;;17.10;1.00;;;;;;5082569;28;20024;-64
2022/09/22 06:13:35;;;;;;;3.95;1.75;;;17.10;1.00;;;;;;5093755;28;20465;-64
2022/09/22 06:16:01;;;;;;;6.93;1.92;;;17.10;1.00;;;;;;5094690;28;20020;-64
2022/09/22 06:18:27;;;;;;;8.88;1.85;;;17.10;1.00;;;;;;5092574;28;20463;-64
2022/09/22 06:20:55;;;;;;;7.22;1.67;;;17.10;1.00;;;;;;5094170;28;20058;-64
2022/09/22 06:23:21;;;;;;;6.28;2.30;;;17.10;1.00;;;;;;5088147;28;20127;-64
2022/09/22 06:25:47;;;;;;;2.30;1.80;;;17.10;1.00;;;;;;5094390;28;20099;-64
2022/09/22 06:28:13;;;;;;;5.45;1.70;;;17.10;1.00;;;;;;5093619;28;20024;-64
2022/09/22 06:30:39;;;;;;;7.13;2.00;;;17.10;1.00;;;;;;5093994;28;20552;-64
2022/09/22 06:33:06;;;;;;;5.05;1.30;;;17.10;1.00;;;;;;5087568;28;20130;-64
2022/09/22 06:35:36;;;;;;;4.53;1.25;;;17.10;1.00;;;;;;5090160;28;20527;-64
2022/09/22 06:38:04;;;;;;;4.05;1.48;;;17.10;1.00;;;;;;5084955;28;20048;-63
2022/09/22 06:40:36;;;;;;;2.55;1.10;;;17.20;1.00;;;;;;5086376;28;20038;-63
2022/09/22 06:43:10;;;;;;;3.15;1.38;;;17.20;1.00;;;;;;5089427;28;20342;-64
2022/09/22 06:45:38;;;;;;;5.10;1.60;;;17.20;1.00;;;;;;5094396;28;20019;-63
2022/09/22 06:48:04;;;;;;;9.30;1.65;;;17.30;1.00;;;;;;5105363;28;20028;-64
2022/09/22 06:50:31;;;;;;;7.28;1.58;;;17.30;1.00;;;;;;5094361;28;20089;-63
2022/09/22 06:53:02;;;;;;;5.30;1.70;;;17.40;1.00;;;;;;5089497;28;20028;-63
2022/09/22 06:55:29;;;;;;;1.98;1.40;;;17.40;1.00;;;;;;5103079;28;20028;-62
2022/09/22 06:57:57;;;;;;;4.45;1.40;;;17.50;1.00;;;;;;5109017;28;20041;-63
2022/09/22 07:00:30;;;;;;;4.32;1.60;;;17.50;1.00;;;;;;5093112;28;20016;-64
2022/09/22 07:03:08;;;;;;;8.57;1.25;;;17.60;1.00;;;;;;5072734;28;20028;-63
2022/09/22 07:05:36;;;;;;;6.00;1.48;;;17.70;1.00;;;;;;5093941;28;20028;-64
2022/09/22 07:08:03;;;;;;;7.30;1.73;;;17.70;1.00;;;;;;5092468;28;20012;-64
2022/09/22 07:10:29;;;;;;;5.97;1.52;;;17.70;1.00;;;;;;5093665;28;20023;-64
2022/09/22 07:12:57;;;;;;;4.80;1.45;;;17.60;1.00;;;;;;5086753;28;20030;-64
2022/09/22 07:15:23;;;;;;;9.45;1.70;;;17.70;1.00;;;;;;5093505;28;20036;-64
2022/09/22 07:17:52;;;;;;;5.15;1.60;;;17.70;1.00;;;;;;5091535;28;20020;-64
2022/09/22 07:20:19;;;;;;;5.32;1.23;;;17.70;1.00;;;;;;5091273;28;20520;-63
2022/09/22 07:22:45;;;;;;;4.25;1.50;;;17.70;1.00;;;;;;5091409;28;20137;-63
2022/09/22 07:25:12;;;;;;;5.80;1.50;;;17.70;1.00;;;;;;5092887;28;20024;-63
2022/09/22 07:27:37;;;;;;;4.13;1.30;;;17.70;1.00;;;;;;5089691;28;20027;-63
2022/09/22 07:30:03;;;;;;;3.70;1.70;;;17.70;1.00;;;;;;5101160;28;20478;-64
2022/09/22 07:32:33;;;;;;;5.00;1.55;;;17.60;1.00;;;;;;5092181;28;20454;-64
2022/09/22 07:39:11;;;;;;;3.28;1.10;;;17.60;1.00;;;;;;5074152;28;20090;-63
2022/09/22 07:41:43;;;;;;;5.18;0.93;;;17.60;1.00;;;;;;5083926;28;20066;-64
2022/09/22 07:46:55;;;;;;;4.18;1.67;;;17.70;1.00;;;;;;5085146;28;20126;-64
2022/09/22 07:49:21;;;;;;;7.72;1.23;;;17.60;1.00;;;;;;5092178;28;20021;-64
2022/09/22 07:51:56;;;;;;;4.85;1.10;;;17.60;1.00;;;;;;5093082;28;20055;-64
2022/09/22 07:54:22;;;;;;;3.92;1.10;;;17.60;1.00;;;;;;5090999;28;20531;-63
2022/09/22 07:56:48;;;;;;;4.70;1.65;;;17.70;1.00;;;;;;5108159;28;20116;-64
2022/09/22 07:59:15;;;;;;;4.13;1.40;;;17.70;1.00;;;;;;5091545;28;20470;-65
2022/09/22 08:01:46;;;;;;;3.78;1.30;;;17.80;1.00;;;;;;5079699;28;20027;-64
2022/09/22 08:04:21;;;;;;;5.05;1.48;;;17.80;1.00;;;;;;5091302;28;20508;-63
2022/09/22 08:06:51;;;;;;;8.20;3.33;;;18.00;1.00;;;;;;5079413;28;20080;-64
2022/09/22 08:09:17;;;;;;;12.63;2.78;;;18.00;1.00;;;;;;5078988;28;20058;-63
2022/09/22 08:11:44;;;;;;;6.00;2.40;;;18.00;1.00;;;;;;5091111;28;20039;-64
2022/09/22 08:14:11;;;;;;;10.50;2.40;;;18.20;1.00;;;;;;5092462;28;20033;-63
2022/09/22 08:16:39;;;;;;;9.02;2.80;;;18.40;1.00;;;;;;5077560;28;20024;-64
2022/09/22 08:19:11;;;;;;;10.50;3.20;;;18.40;1.00;;;;;;5092513;28;20031;-64
2022/09/22 08:21:38;;;;;;;12.05;2.72;;;18.50;1.00;;;;;;5086515;28;20466;-64
2022/09/22 08:24:05;;;;;;;8.07;2.53;;;18.50;1.00;;;;;;5071806;28;20342;-64
2022/09/22 08:26:31;;;;;;;10.88;2.47;;;18.60;1.00;;;;;;5071413;28;20099;-64
2022/09/22 08:28:56;;;;;;;6.45;2.03;;;18.70;1.00;;;;;;5075796;28;20205;-64
2022/09/22 08:31:25;;;;;;;6.05;3.33;;;18.80;1.00;;;;;;5085564;28;20385;-64
2022/09/22 08:33:53;;;;;;;7.70;2.42;;;18.90;1.00;;;;;;5092241;28;20032;-65
2022/09/22 08:36:19;;;;;;;6.55;2.13;;;19.00;1.00;;;;;;5088156;28;20035;-63
2022/09/22 08:38:47;;;;;;;5.47;1.92;;;19.10;1.00;;;;;;5091329;28;20028;-64
2022/09/22 08:41:28;;;;;;;8.88;2.90;;;19.20;1.00;;;;;;5090846;28;20058;-63
2022/09/22 08:44:25;;;;;;;6.40;3.67;;;19.30;1.00;;;;;;5079268;28;20047;-63
2022/09/22 08:46:52;;;;;;;4.30;1.40;;;19.40;1.00;;;;;;5081166;28;20028;-63
2022/09/22 08:52:37;;;;;;;4.68;1.40;;;19.60;1.00;;;;;;5090474;28;20027;-64
2022/09/22 08:55:06;;;;;;;7.13;1.98;;;19.70;1.00;;;;;;5091710;28;20494;-64
2022/09/22 08:57:55;;;;;;;6.85;1.48;;;19.80;1.00;;;;;;5079837;28;20515;-63
2022/09/22 09:00:21;;;;;;;1.60;1.10;;;19.90;1.00;;;;;;5090627;28;20115;-62
2022/09/22 09:02:58;;;;;;;4.50;0.70;;;20.00;1.00;;;;;;5081767;28;20405;-64
2022/09/22 09:06:02;;;;;;;1.73;0.77;;;20.10;1.00;;;;;;5088671;28;20024;-62
2022/09/22 09:08:38;;;;;;;5.45;1.05;;;20.20;1.00;;;;;;5086750;28;20089;-63
2022/09/22 09:11:06;;;;;;;2.03;1.10;;;20.20;1.00;;;;;;5085197;28;20173;-63
2022/09/22 09:13:41;;;;;;;2.70;1.10;;;20.10;1.00;;;;;;5091418;28;20478;-63
2022/09/22 09:16:22;;;;;;;1.67;1.15;;;20.20;1.00;;;;;;5089643;28;20024;-63
2022/09/22 09:19:14;;;;;;;1.50;1.00;;;20.30;1.00;;;;;;5092043;28;20351;-63
2022/09/22 09:21:48;;;;;;;6.60;1.98;;;20.30;1.00;;;;;;5074489;28;20064;-63
2022/09/22 09:24:47;;;;;;;4.50;1.40;;;20.10;1.00;;;;;;5091464;28;20504;-63
2022/09/22 09:27:18;;;;;;;5.20;1.25;;;20.10;1.00;;;;;;5089952;28;20024;-63
2022/09/22 09:30:10;;;;;;;3.67;2.15;;;19.90;1.00;;;;;;5091179;28;20439;-63
2022/09/22 09:32:59;;;;;;;3.30;1.63;;;20.00;1.00;;;;;;5089081;28;20030;-63
2022/09/22 09:35:33;;;;;;;4.78;1.50;;;20.00;1.00;;;;;;5076101;28;20172;-64
2022/09/22 09:38:01;;;;;;;2.97;1.50;;;20.10;1.00;;;;;;5080352;28;20048;-64
2022/09/22 09:40:26;;;;;;;4.05;1.23;;;20.10;1.00;;;;;;5076265;28;20026;-64
2022/09/22 09:43:04;;;;;;;3.78;1.67;;;20.10;1.00;;;;;;5091052;28;20106;-63
2022/09/22 09:46:11;;;;;;;3.40;1.02;;;20.20;1.00;;;;;;5089925;28;20051;-64
2022/09/22 09:48:57;;;;;;;5.05;1.10;;;20.30;1.00;;;;;;5085990;28;20051;-64
2022/09/22 09:51:23;;;;;;;2.95;1.17;;;20.40;1.00;;;;;;5075366;28;20173;-63
2022/09/22 09:53:48;;;;;;;2.03;0.90;;;20.40;1.00;;;;;;5089591;28;20078;-63
2022/09/22 09:56:27;;;;;;;3.95;1.35;;;20.40;1.00;;;;;;5088250;28;20020;-64
2022/09/22 10:01:45;;;;;;;2.55;1.42;;;20.20;1.00;;;;;;5083035;28;20161;-64
2022/09/22 10:04:28;;;;;;;2.97;1.10;;;20.20;1.00;;;;;;5090395;28;20047;-64
2022/09/22 10:07:08;;;;;;;2.60;1.42;;;20.10;1.00;;;;;;5093794;28;20101;-64
2022/09/22 10:09:33;;;;;;;6.40;2.10;;;20.10;1.00;;;;;;5090422;28;20082;-64
2022/09/22 10:12:01;;;;;;;4.30;1.23;;;20.10;1.00;;;;;;5085764;28;20408;-64
2022/09/22 10:14:30;;;;;;;4.13;1.20;;;20.20;1.00;;;;;;5094532;28;20051;-64
2022/09/22 10:16:56;;;;;;;2.25;1.10;;;20.10;1.00;;;;;;5092297;28;20043;-64
2022/09/22 10:19:30;;;;;;;2.90;0.88;;;20.10;1.00;;;;;;5093421;28;20084;-64
2022/09/22 10:22:34;;;;;;;1.95;0.88;;;20.10;1.00;;;;;;5090461;28;20048;-64
2022/09/22 10:25:02;;;;;;;4.10;0.88;;;20.20;1.00;;;;;;5091570;28;20060;-64
2022/09/22 10:27:30;;;;;;;1.75;1.00;;;20.20;1.00;;;;;;5090462;28;20089;-64
2022/09/22 10:30:22;;;;;;;2.55;1.60;;;20.20;1.00;;;;;;5093247;28;20043;-64
2022/09/22 10:33:16;;;;;;;1.50;0.70;;;20.30;1.00;;;;;;5093655;28;20490;-64
2022/09/22 10:36:03;;;;;;;6.10;1.27;;;20.30;1.00;;;;;;5093509;28;20028;-65
2022/09/22 10:38:33;;;;;;;4.00;1.25;;;20.30;1.00;;;;;;5091596;28;20023;-64
2022/09/22 10:41:06;;;;;;;1.70;1.60;;;20.40;1.00;;;;;;5090938;28;20050;-64
2022/09/22 10:43:53;;;;;;;2.50;1.10;;;20.40;1.00;;;;;;5089696;28;20039;-64
2022/09/22 10:46:48;;;;;;;2.95;1.10;;;20.50;1.00;;;;;;5078583;28;20134;-64
2022/09/22 10:49:32;;;;;;;1.80;1.10;;;20.40;1.00;;;;;;5094025;28;20107;-64
2022/09/22 10:52:20;;;;;;;1.80;1.00;;;20.40;1.00;;;;;;5082308;28;20611;-64
2022/09/22 10:55:13;;;;;;;1.85;1.00;;;20.40;1.00;;;;;;5087724;28;20381;-64
2022/09/22 10:58:08;;;;;;;1.88;1.08;;;20.50;1.00;;;;;;5089754;28;20028;-64
2022/09/22 11:00:42;;;;;;;3.17;1.15;;;20.60;1.00;;;;;;5084862;28;20020;-64
2022/09/22 11:03:40;;;;;;;2.35;1.10;;;20.60;1.00;;;;;;5091893;28;20462;-64
2022/09/22 11:13:02;;;;;;;2.28;1.20;;;20.50;1.00;;;;;;5092531;28;20085;-65
2022/09/22 11:15:42;;;;;;;3.33;1.25;;;20.70;1.00;;;;;;5082345;28;20039;-64
2022/09/22 11:18:40;;;;;;;2.75;1.38;;;20.90;1.00;;;;;;5092744;28;20055;-63
2022/09/22 11:21:12;;;;;;;4.78;2.30;;;20.90;1.00;;;;;;5093816;28;20478;-64
2022/09/22 11:23:55;;;;;;;3.67;1.80;;;20.90;1.00;;;;;;5081284;28;20505;-63
2022/09/22 11:26:46;;;;;;;2.42;1.30;;;21.00;1.00;;;;;;5092966;28;20016;-64
2022/09/22 11:29:46;;;;;;;2.03;1.83;;;21.10;1.00;;;;;;5084747;28;20035;-64
2022/09/22 11:32:20;;;;;;;2.97;1.75;;;21.40;1.00;;;;;;5092516;28;20035;-64
2022/09/22 11:34:55;;;;;;;1.40;1.30;;;21.40;1.00;;;;;;5093125;28;20459;-63
2022/09/22 11:37:57;;;;;;;2.38;2.10;;;21.40;1.00;;;;;;5084882;28;20029;-63
2022/09/22 11:40:43;;;;;;;5.43;2.03;;;21.50;1.00;;;;;;5106109;28;20059;-64
2022/09/22 11:43:30;;;;;;;7.88;2.33;;;21.50;1.00;;;;;;5088758;28;20521;-62
2022/09/22 11:46:02;;;;;;;3.85;2.60;;;21.60;1.00;;;;;;5088024;28;20029;-63
2022/09/22 11:48:49;;;;;;;3.58;2.53;;;21.70;1.00;;;;;;5092294;28;20032;-63
2022/09/22 11:51:15;;;;;;;3.92;2.35;;;21.70;1.00;;;;;;5093376;28;20035;-63
2022/09/22 11:53:56;;;;;;;4.95;2.13;;;21.80;1.00;;;;;;5092264;28;20485;-63
2022/09/22 11:56:32;;;;;;;4.10;2.38;;;21.80;1.00;;;;;;5093212;28;20486;-63
2022/09/22 11:59:29;;;;;;;7.30;2.60;;;21.90;1.00;;;;;;5080709;28;20485;-63
2022/09/22 12:02:03;;;;;;;5.38;2.30;;;22.10;1.00;;;;;;5069104;28;20477;-63
2022/09/22 12:04:51;;;;;;;7.05;2.83;;;22.30;1.00;;;;;;5093479;28;20059;-63
2022/09/22 12:07:34;;;;;;;4.78;3.05;;;22.30;1.00;;;;;;5092109;28;20032;-64
2022/09/22 12:10:06;;;;;;;4.53;2.65;;;22.40;1.00;;;;;;5084225;28;20036;-64
2022/09/22 12:12:33;;;;;;;4.97;2.40;;;22.50;1.00;;;;;;5091500;28;20036;-64
2022/09/22 12:15:19;;;;;;;3.78;2.15;;;22.70;1.00;;;;;;5092569;28;20135;-64
2022/09/22 12:18:08;;;;;;;3.38;2.22;;;22.80;1.00;;;;;;5087799;28;20027;-65
2022/09/22 12:21:00;;;;;;;2.85;2.33;;;22.90;1.00;;;;;;5092537;28;20398;-64
2022/09/22 12:23:36;;;;;;;2.90;2.70;;;22.90;1.00;;;;;;5082119;28;20076;-64
2022/09/22 12:26:10;;;;;;;5.57;2.63;;;23.10;1.00;;;;;;5092146;28;20116;-64
2022/09/22 12:28:44;;;;;;;4.55;2.25;;;23.20;1.00;;;;;;5081907;28;20076;-64
2022/09/22 12:31:14;;;;;;;4.18;2.22;;;23.20;1.00;;;;;;5091038;28;20028;-64
2022/09/22 12:33:53;;;;;;;2.42;2.22;;;24.20;1.00;;;;;;5080773;28;20099;-64
2022/09/22 12:36:34;;;;;;;3.55;2.70;;;29.00;1.00;;;;;;5092005;28;20036;-63
2022/09/22 12:39:26;;;;;;;3.15;2.78;;;30.80;1.00;;;;;;5080008;28;20062;-64
2022/09/22 12:42:05;;;;;;;5.72;2.90;;;33.00;1.00;;;;;;5076080;28;20071;-63
2022/09/22 12:44:36;;;;;;;7.72;2.58;;;28.30;1.00;;;;;;5092012;28;20040;-63
2022/09/22 12:47:06;;;;;;;3.22;2.70;;;28.10;1.00;;;;;;5089092;28;20446;-63
2022/09/22 12:49:33;;;;;;;5.25;3.85;;;32.50;1.00;;;;;;5091861;28;20024;-63
2022/09/22 12:51:58;;;;;;;6.80;5.10;;;35.80;99.90;;;;;;5087714;28;20115;-63
2022/09/22 12:54:25;;;;;;;5.95;3.35;;;37.30;99.90;;;;;;5091845;28;20107;-63
2022/09/22 12:57:07;;;;;;;3.13;2.88;;;39.50;99.90;;;;;;5090933;28;20069;-63
2022/09/22 12:59:38;;;;;;;3.67;3.38;;;41.00;99.90;;;;;;5079375;28;20458;-63
2022/09/22 13:02:10;;;;;;;5.30;3.95;;;41.50;99.90;;;;;;5079679;28;20012;-63
2022/09/22 13:04:36;;;;;;;4.03;2.88;;;41.30;99.90;;;;;;5083976;28;20381;-63
2022/09/22 13:07:04;;;;;;;3.25;2.95;;;41.10;99.90;;;;;;5090742;28;20024;-64
2022/09/22 13:09:31;;;;;;;6.50;3.45;;;41.90;99.90;;;;;;5091818;28;20047;-63
2022/09/22 13:12:12;;;;;;;4.72;3.03;;;40.80;99.90;;;;;;5087371;28;20432;-63
2022/09/22 13:15:02;;;;;;;3.75;2.78;;;42.80;99.90;;;;;;5080345;28;20032;-64
2022/09/22 13:17:46;;;;;;;6.78;3.50;;;42.30;99.90;;;;;;5080410;28;20324;-64
2022/09/22 13:20:36;;;;;;;7.63;4.63;;;42.20;99.90;;;;;;5091499;28;20119;-65
2022/09/22 13:23:14;;;;;;;9.00;3.40;;;41.90;99.90;;;;;;5084602;28;20055;-65
2022/09/22 13:25:41;;;;;;;4.40;3.65;;;42.50;99.90;;;;;;5086739;28;20036;-65
2022/09/22 13:28:11;;;;;;;3.80;3.53;;;41.50;99.90;;;;;;5082275;28;20326;-65
2022/09/22 13:30:40;;;;;;;4.50;3.15;;;42.00;99.90;;;;;;5094639;28;20031;-65
2022/09/22 13:33:17;;;;;;;3.97;3.17;;;41.80;99.90;;;;;;5090347;28;20024;-65
2022/09/22 13:35:44;;;;;;;4.18;3.35;;;39.30;99.90;;;;;;5095295;28;20024;-64
2022/09/22 13:38:12;;;;;;;2.88;2.67;;;40.30;99.90;;;;;;5094712;28;20426;-64
2022/09/22 13:40:46;;;;;;;3.83;3.00;;;38.20;99.90;;;;;;5094327;28;20481;-64
2022/09/22 13:43:29;;;;;;;3.22;2.65;;;36.30;99.90;;;;;;5094347;28;20469;-64